Time;durP1;ratioP1;P1;durP2;ratioP2;P2;SDS_P1;SDS_P2;PMS_P1;PMS_P2;Temp;Humidity;BMP_temperature;BMP_pressure;BME280_temperature;BME280_humidity;BME280_pressure;Samples;Min_cycle;Max_cycle;Signal;HPM_P1;HPM_P2
2021/05/12 00:01:41;;;;;;;5.28;2.22;;;;;;;14.36;52.13;99699.56;5062628;28;20326;-76
2021/05/12 00:04:06;;;;;;;6.07;2.28;;;;;;;14.21;52.26;99693.44;5059036;28;20031;-76
2021/05/12 00:06:32;;;;;;;8.02;2.35;;;;;;;14.23;52.48;99698.59;5062189;28;20039;-75
2021/05/12 00:08:57;;;;;;;3.03;1.80;;;;;;;14.14;52.25;99694.38;5061182;28;20068;-73
2021/05/12 00:11:23;;;;;;;3.55;1.90;;;;;;;14.01;53.18;99703.84;5058693;28;20079;-76
2021/05/12 00:13:48;;;;;;;4.38;2.17;;;;;;;14.07;52.99;99704.94;5062007;28;20048;-76
2021/05/12 00:16:14;;;;;;;3.58;1.90;;;;;;;14.11;52.97;99697.41;5059956;28;20045;-74
2021/05/12 00:18:44;;;;;;;6.63;2.88;;;;;;;13.99;54.13;99708.53;5061252;28;20036;-66
2021/05/12 00:21:13;;;;;;;5.63;2.80;;;;;;;13.89;54.06;99693.84;5062688;28;20146;-66
2021/05/12 00:24:12;;;;;;;10.30;2.60;;;;;;;14.03;54.45;99695.69;5061089;28;20064;-66
2021/05/12 00:26:37;;;;;;;7.75;2.42;;;;;;;13.93;55.05;99692.47;5058812;28;20327;-67
2021/05/12 00:29:11;;;;;;;5.68;2.80;;;;;;;14.00;54.71;99688.88;5060689;28;20079;-73
2021/05/12 00:31:36;;;;;;;5.47;2.75;;;;;;;13.98;54.70;99688.25;5061388;28;20102;-73
2021/05/12 00:34:03;;;;;;;5.97;2.90;;;;;;;13.90;54.59;99672.38;5071780;28;20041;-74
2021/05/12 00:36:29;;;;;;;7.70;3.05;;;;;;;13.93;54.97;99689.81;5058133;28;20024;-68
2021/05/12 00:38:56;;;;;;;7.50;3.13;;;;;;;13.98;54.59;99677.59;5061324;28;20033;-74
2021/05/12 00:41:22;;;;;;;6.15;2.90;;;;;;;13.90;55.28;99677.69;5060444;28;20075;-76
2021/05/12 00:43:47;;;;;;;5.90;2.97;;;;;;;14.01;54.36;99682.56;5060619;28;20238;-67
2021/05/12 00:46:13;;;;;;;4.68;2.70;;;;;;;13.96;54.59;99676.13;5061488;28;20351;-75
2021/05/12 00:48:39;;;;;;;5.57;2.70;;;;;;;13.91;54.69;99682.00;5060193;28;20048;-74
2021/05/12 00:51:05;;;;;;;6.70;2.92;;;;;;;13.80;55.11;99679.81;5060868;28;20051;-68
2021/05/12 00:53:31;;;;;;;8.60;3.13;;;;;;;13.80;55.09;99669.16;5061664;28;20033;-74
2021/05/12 00:55:56;;;;;;;10.75;4.13;;;;;;;13.88;55.06;99679.72;5062469;28;20082;-74
2021/05/12 00:58:22;;;;;;;5.82;3.42;;;;;;;13.89;54.76;99677.88;5061505;28;20056;-75
2021/05/12 01:00:47;;;;;;;8.32;2.85;;;;;;;13.89;54.89;99675.22;5060239;28;20041;-67
2021/05/12 01:03:13;;;;;;;6.47;2.92;;;;;;;13.82;55.24;99677.78;5061107;28;20021;-74
2021/05/12 01:06:02;;;;;;;5.85;2.92;;;;;;;13.83;54.90;99670.63;5059997;28;20056;-68
2021/05/12 01:08:28;;;;;;;4.43;2.97;;;;;;;13.87;54.62;99662.09;5059327;28;20040;-74
2021/05/12 01:10:55;;;;;;;6.85;3.10;;;;;;;13.72;55.21;99664.78;5060131;28;20273;-67
2021/05/12 01:13:20;;;;;;;5.38;3.28;;;;;;;13.46;56.00;99660.88;5060824;28;20062;-74
2021/05/12 01:15:46;;;;;;;5.60;3.10;;;;;;;13.30;56.05;99662.69;5060144;28;20025;-75
2021/05/12 01:18:20;;;;;;;5.13;2.95;;;;;;;13.10;56.85;99658.88;5062074;28;20029;-68
2021/05/12 01:20:46;;;;;;;8.48;3.75;;;;;;;12.92;57.03;99643.25;5060787;28;20399;-69
2021/05/12 01:23:11;;;;;;;7.15;2.95;;;;;;;12.98;57.33;99655.00;5061987;28;20029;-68
2021/05/12 01:25:37;;;;;;;7.00;3.35;;;;;;;12.97;57.60;99650.69;5060836;28;20071;-74
2021/05/12 01:28:03;;;;;;;5.72;3.60;;;;;;;13.00;57.20;99653.81;5062865;28;20051;-74
2021/05/12 01:30:30;;;;;;;5.65;3.38;;;;;;;12.89;57.59;99642.78;5062643;28;20060;-68
2021/05/12 01:32:59;;;;;;;7.78;3.60;;;;;;;13.05;57.68;99645.31;5062512;28;20138;-73
2021/05/12 01:35:25;;;;;;;6.32;3.72;;;;;;;13.16;57.10;99639.56;5058951;28;20029;-72
2021/05/12 01:37:50;;;;;;;6.18;3.30;;;;;;;13.12;56.32;99640.91;5059864;28;20028;-67
2021/05/12 01:40:16;;;;;;;5.75;3.10;;;;;;;13.16;57.03;99638.72;5070340;28;20043;-74
2021/05/12 01:42:41;;;;;;;6.65;3.50;;;;;;;13.05;56.51;99629.34;5059471;28;20056;-68
2021/05/12 01:45:09;;;;;;;5.18;3.22;;;;;;;13.06;56.78;99637.16;5060233;28;20044;-74
2021/05/12 01:47:35;;;;;;;5.25;2.75;;;;;;;13.10;56.85;99638.44;5058015;28;20083;-72
2021/05/12 01:50:12;;;;;;;8.32;3.00;;;;;;;13.13;57.36;99634.59;5059231;28;20041;-67
2021/05/12 01:52:42;;;;;;;4.68;2.95;;;;;;;13.03;56.98;99610.94;5056998;28;20025;-74
2021/05/12 01:55:09;;;;;;;7.45;3.05;;;;;;;13.20;57.15;99626.75;5059882;28;20243;-75
2021/05/12 01:57:35;;;;;;;9.18;3.08;;;;;;;13.26;56.68;99629.50;5056817;28;20058;-74
2021/05/12 02:00:01;;;;;;;8.18;3.47;;;;;;;13.28;56.59;99621.34;5059819;28;20037;-67
2021/05/12 02:02:26;;;;;;;6.68;3.00;;;;;;;13.19;56.71;99603.84;5055906;28;20021;-74
2021/05/12 02:04:51;;;;;;;8.48;3.03;;;;;;;12.97;56.81;99578.94;5059600;28;20025;-68
2021/05/12 02:07:17;;;;;;;4.80;2.60;;;;;;;13.17;56.85;99616.47;5059541;28;20045;-74
2021/05/12 02:09:51;;;;;;;6.60;3.22;;;;;;;13.17;57.18;99614.66;5058723;28;20041;-74
2021/05/12 02:12:17;;;;;;;6.05;2.92;;;;;;;12.98;57.17;99575.28;5056376;28;20230;-74
2021/05/12 02:14:42;;;;;;;5.82;3.30;;;;;;;13.03;57.10;99604.78;5060620;28;20033;-75
2021/05/12 02:17:08;;;;;;;6.90;2.90;;;;;;;13.14;57.23;99603.53;5061080;28;20096;-75
2021/05/12 02:19:33;;;;;;;8.57;3.25;;;;;;;13.13;57.50;99604.53;5059085;28;20096;-74
2021/05/12 02:21:59;;;;;;;5.43;3.08;;;;;;;13.10;57.03;99601.22;5060096;28;20036;-74
2021/05/12 02:24:24;;;;;;;5.60;2.90;;;;;;;13.06;57.31;99596.44;5060889;28;20092;-72
2021/05/12 02:26:49;;;;;;;7.25;3.40;;;;;;;13.04;56.72;99593.16;5060319;28;20059;-67
2021/05/12 02:29:15;;;;;;;8.07;3.25;;;;;;;13.04;57.50;99591.31;5059136;28;20214;-67
2021/05/12 02:31:40;;;;;;;8.50;4.03;;;;;;;12.96;57.27;99598.53;5058398;28;20104;-68
2021/05/12 02:34:06;;;;;;;9.80;3.42;;;;;;;12.90;57.72;99602.75;5057386;28;20041;-74
2021/05/12 02:36:31;;;;;;;6.65;3.38;;;;;;;12.96;57.06;99609.19;5060299;28;20044;-68
2021/05/12 02:38:56;;;;;;;10.80;3.58;;;;;;;12.99;56.90;99596.34;5059640;28;20113;-68
2021/05/12 02:41:22;;;;;;;9.30;3.40;;;;;;;12.99;57.22;99591.03;5061979;28;20188;-74
2021/05/12 02:43:47;;;;;;;7.90;3.55;;;;;;;12.86;56.42;99593.50;5063696;28;20315;-74
2021/05/12 02:46:13;;;;;;;6.13;3.17;;;;;;;12.74;57.19;99595.75;5064820;28;20068;-74
2021/05/12 02:48:38;;;;;;;5.57;2.85;;;;;;;12.74;56.79;99587.78;5063919;28;20105;-69
2021/05/12 02:51:04;;;;;;;9.18;3.22;;;;;;;12.47;56.48;99583.81;5063181;28;20040;-69
2021/05/12 02:53:29;;;;;;;6.53;3.22;;;;;;;12.24;58.46;99587.50;5062252;28;20056;-69
2021/05/12 02:55:55;;;;;;;8.65;3.40;;;;;;;12.02;58.63;99578.50;5063175;28;20041;-75
2021/05/12 02:58:20;;;;;;;7.07;3.72;;;;;;;11.97;59.32;99587.00;5065083;28;20180;-69
2021/05/12 03:00:46;;;;;;;6.45;3.65;;;;;;;12.02;59.66;99589.94;5063960;28;20025;-76
2021/05/12 03:03:12;;;;;;;8.13;3.85;;;;;;;11.92;59.73;99589.34;5060767;28;20133;-69
2021/05/12 03:05:39;;;;;;;7.80;3.50;;;;;;;12.06;58.23;99593.06;5062709;28;20070;-69
2021/05/12 03:08:06;;;;;;;7.55;3.28;;;;;;;11.88;58.97;99593.34;5062487;28;20099;-76
2021/05/12 03:10:33;;;;;;;5.28;3.47;;;;;;;11.84;58.96;99589.38;5061620;28;20039;-76
2021/05/12 03:12:59;;;;;;;13.73;3.60;;;;;;;11.71;59.71;99581.97;5059014;28;20032;-76
2021/05/12 03:15:26;;;;;;;6.97;3.22;;;;;;;11.76;59.66;99590.22;5062363;28;20040;-76
2021/05/12 03:17:54;;;;;;;8.32;3.88;;;;;;;11.91;58.74;99589.53;5062515;28;20028;-69
2021/05/12 03:20:22;;;;;;;9.63;3.50;;;;;;;11.88;59.14;99579.25;5059484;28;20373;-76
2021/05/12 03:22:48;;;;;;;9.38;3.33;;;;;;;11.92;59.50;99584.03;5061875;28;20032;-76
2021/05/12 03:25:15;;;;;;;8.70;3.20;;;;;;;11.97;59.50;99581.69;5062509;28;20084;-76
2021/05/12 03:27:41;;;;;;;9.00;4.13;;;;;;;11.99;58.92;99574.38;5063215;28;20029;-69
2021/05/12 03:30:13;;;;;;;8.52;3.30;;;;;;;11.98;59.21;99590.47;5062490;28;20040;-69
2021/05/12 03:32:39;;;;;;;8.50;3.47;;;;;;;11.97;59.63;99592.31;5061974;28;20020;-76
2021/05/12 03:35:05;;;;;;;6.10;3.30;;;;;;;12.03;59.75;99596.91;5063581;28;20025;-70
2021/05/12 03:37:31;;;;;;;5.47;3.30;;;;;;;12.16;59.16;99593.69;5063987;28;20024;-69
2021/05/12 03:39:57;;;;;;;8.02;3.63;;;;;;;12.19;59.41;99582.72;5061925;28;20063;-76
2021/05/12 03:42:22;;;;;;;10.75;3.42;;;;;;;12.26;59.30;99585.47;5063023;28;20040;-74
2021/05/12 03:44:48;;;;;;;13.80;4.63;;;;;;;12.34;59.34;99593.38;5060036;28;20052;-74
2021/05/12 03:47:13;;;;;;;11.35;3.67;;;;;;;12.37;59.17;99593.03;5060693;28;20029;-67
2021/05/12 03:49:39;;;;;;;5.82;3.70;;;;;;;12.54;58.93;99583.16;5062601;28;20055;-67
2021/05/12 03:52:04;;;;;;;10.57;4.20;;;;;;;12.61;58.18;99576.94;5061097;28;20492;-74
2021/05/12 03:54:30;;;;;;;9.63;3.70;;;;;;;12.66;58.53;99589.69;5062461;28;20041;-67
2021/05/12 03:56:55;;;;;;;15.02;4.20;;;;;;;12.74;58.76;99581.66;5063727;28;20216;-68
2021/05/12 03:59:21;;;;;;;11.77;4.07;;;;;;;12.85;58.62;99581.22;5063307;28;20025;-67
2021/05/12 04:01:46;;;;;;;13.70;4.20;;;;;;;12.92;58.17;99579.47;5060551;28;20029;-67
2021/05/12 04:04:14;;;;;;;15.80;4.47;;;;;;;12.97;58.86;99589.56;5061557;28;20319;-67
2021/05/12 04:06:41;;;;;;;8.70;4.05;;;;;;;13.08;58.56;99597.09;5061915;28;20029;-68
2021/05/12 04:09:07;;;;;;;7.47;4.10;;;;;;;13.11;58.12;99588.75;5061676;28;20261;-69
2021/05/12 04:11:32;;;;;;;10.63;3.85;;;;;;;13.16;58.58;99594.34;5063522;28;20037;-73
2021/05/12 04:13:58;;;;;;;10.75;4.07;;;;;;;13.25;57.41;99587.16;5077801;28;20086;-68
2021/05/12 04:16:23;;;;;;;12.40;4.93;;;;;;;13.38;56.75;99582.84;5060441;28;20025;-68
2021/05/12 04:18:49;;;;;;;11.70;4.13;;;;;;;13.45;56.09;99588.25;5073673;28;20040;-75
2021/05/12 04:21:14;;;;;;;6.45;3.72;;;;;;;13.56;55.46;99569.19;5058527;28;20021;-69
2021/05/12 04:23:39;;;;;;;8.20;3.20;;;;;;;13.73;53.24;99577.78;5060988;28;20088;-73
2021/05/12 04:26:05;;;;;;;9.18;3.40;;;;;;;13.81;53.94;99571.53;5058269;28;20127;-67
2021/05/12 04:28:30;;;;;;;10.15;3.42;;;;;;;14.07;52.96;99572.66;5062252;28;20036;-68
2021/05/12 04:30:56;;;;;;;4.20;2.80;;;;;;;13.85;52.62;99562.16;5059706;28;20055;-68
2021/05/12 04:33:21;;;;;;;3.88;3.22;;;;;;;14.00;53.13;99562.94;5060618;28;20215;-76
2021/05/12 04:35:47;;;;;;;3.92;2.47;;;;;;;14.10;52.54;99559.97;5060494;28;20028;-76
2021/05/12 04:38:12;;;;;;;7.00;3.45;;;;;;;14.30;52.46;99551.16;5061957;28;20039;-68
2021/05/12 04:40:37;;;;;;;8.07;3.85;;;;;;;14.70;51.77;99554.22;5062552;28;20055;-67
2021/05/12 04:43:03;;;;;;;7.82;3.30;;;;;;;14.83;51.56;99549.00;5062548;28;20108;-74
2021/05/12 04:45:28;;;;;;;8.88;3.10;;;;;;;14.89;50.35;99558.06;5060311;28;20580;-74
2021/05/12 04:47:57;;;;;;;18.48;3.50;;;;;;;15.09;49.70;99558.19;5061178;28;20083;-68
2021/05/12 04:50:29;;;;;;;5.18;2.72;;;;;;;15.33;49.18;99552.38;5061725;28;20461;-68
2021/05/12 04:52:55;;;;;;;7.82;2.92;;;;;;;15.11;49.15;99537.50;5063295;28;20027;-75
2021/05/12 04:55:21;;;;;;;6.45;3.25;;;;;;;15.35;48.80;99561.00;5062016;28;20038;-74
2021/05/12 04:57:46;;;;;;;5.80;3.28;;;;;;;15.63;48.07;99555.66;5061487;28;20096;-75
2021/05/12 05:00:14;;;;;;;10.00;3.58;;;;;;;15.80;47.72;99550.81;5059997;28;20024;-68
2021/05/12 05:02:41;;;;;;;9.60;3.95;;;;;;;16.02;47.58;99549.63;5059889;28;20035;-68
2021/05/12 05:05:09;;;;;;;4.25;2.47;;;;;;;16.07;46.43;99539.16;5059827;28;20143;-74
2021/05/12 05:07:35;;;;;;;7.45;2.90;;;;;;;16.42;45.13;99549.69;5060505;28;20279;-70
2021/05/12 05:10:03;;;;;;;6.75;3.15;;;;;;;16.93;44.00;99541.91;5059096;28;20037;-68
2021/05/12 05:12:29;;;;;;;6.55;2.80;;;;;;;17.27;43.19;99540.81;5062864;28;20024;-68
2021/05/12 05:14:55;;;;;;;8.35;3.50;;;;;;;17.40;42.72;99537.28;5059733;28;20382;-69
2021/05/12 05:17:21;;;;;;;8.15;3.38;;;;;;;16.97;44.24;99540.47;5059799;28;20082;-67
2021/05/12 05:19:47;;;;;;;10.93;3.00;;;;;;;17.07;43.80;99543.53;5060540;28;20221;-68
2021/05/12 05:22:14;;;;;;;7.40;3.35;;;;;;;17.23;43.70;99531.56;5059387;28;20086;-74
2021/05/12 05:24:40;;;;;;;12.77;3.30;;;;;;;17.72;41.95;99536.38;5062971;28;20037;-74
2021/05/12 05:27:05;;;;;;;9.68;2.80;;;;;;;17.39;42.33;99536.47;5062787;28;20037;-67
2021/05/12 05:29:30;;;;;;;6.15;2.80;;;;;;;17.21;43.33;99538.97;5062819;28;20032;-74
2021/05/12 05:31:56;;;;;;;7.57;2.75;;;;;;;17.35;43.05;99545.13;5058247;28;20044;-67
2021/05/12 05:34:21;;;;;;;6.03;2.55;;;;;;;17.40;42.67;99551.47;5042304;28;20091;-68
2021/05/12 05:36:47;;;;;;;7.45;3.00;;;;;;;17.42;41.96;99533.34;5042962;28;20100;-68
2021/05/12 05:39:12;;;;;;;5.13;2.58;;;;;;;17.34;42.40;99538.13;5059347;28;20036;-74
2021/05/12 05:41:37;;;;;;;4.43;2.85;;;;;;;16.76;44.03;99543.38;5058211;28;20028;-67
2021/05/12 05:44:03;;;;;;;7.07;3.38;;;;;;;17.09;43.02;99543.34;5058673;28;20040;-74
2021/05/12 05:46:29;;;;;;;6.45;3.17;;;;;;;16.94;44.08;99532.88;5060391;28;20451;-74
2021/05/12 05:48:54;;;;;;;5.80;3.28;;;;;;;16.81;44.55;99524.88;5060017;28;20044;-71
2021/05/12 05:51:21;;;;;;;6.60;3.65;;;;;;;16.81;44.24;99525.69;5061353;28;20028;-68
2021/05/12 05:53:47;;;;;;;6.88;3.45;;;;;;;17.05;43.78;99532.22;5059489;28;20025;-74
2021/05/12 05:56:12;;;;;;;5.30;3.45;;;;;;;16.92;44.00;99529.56;5087417;28;20423;-68
2021/05/12 05:58:38;;;;;;;9.02;3.60;;;;;;;16.69;44.03;99532.69;5082352;28;20028;-67
2021/05/12 06:01:03;;;;;;;4.80;3.30;;;;;;;16.66;45.65;99521.59;5063048;28;20033;-74
2021/05/12 06:03:29;;;;;;;6.00;3.85;;;;;;;16.76;44.33;99488.06;5061452;28;20025;-68
2021/05/12 06:05:54;;;;;;;7.60;3.30;;;;;;;17.32;44.21;99508.91;5062326;28;20384;-67
2021/05/12 06:08:19;;;;;;;6.10;3.60;;;;;;;17.72;42.56;99490.88;5082133;28;20095;-68
2021/05/12 06:10:45;;;;;;;10.90;3.50;;;;;;;17.74;41.91;99510.22;5069373;28;20101;-73
2021/05/12 06:13:11;;;;;;;8.05;3.40;;;;;;;17.92;42.27;99504.13;5065614;28;20062;-74
2021/05/12 06:15:40;;;;;;;11.35;3.45;;;;;;;18.42;40.61;99502.34;5069529;28;20052;-74
2021/05/12 06:18:06;;;;;;;7.47;3.35;;;;;;;18.46;39.63;99490.13;5062848;28;20033;-68
2021/05/12 06:20:32;;;;;;;7.35;3.97;;;;;;;19.16;38.99;99505.19;5069331;28;20033;-74
2021/05/12 06:23:02;;;;;;;10.30;4.07;;;;;;;19.04;38.47;99495.22;5076066;28;20033;-68
2021/05/12 06:25:27;;;;;;;6.07;3.63;;;;;;;18.98;37.94;99493.41;5056757;28;20054;-67
2021/05/12 06:27:53;;;;;;;3.95;3.20;;;;;;;19.07;38.85;99486.72;5074961;28;20062;-74
2021/05/12 06:30:18;;;;;;;10.15;3.45;;;;;;;19.12;38.22;99486.03;5063451;28;20075;-74
2021/05/12 06:32:44;;;;;;;10.73;3.40;;;;;;;20.00;37.15;99483.72;5072214;28;20036;-68
2021/05/12 06:35:09;;;;;;;8.73;3.08;;;;;;;19.85;37.59;99483.31;5071827;28;20049;-75
2021/05/12 06:37:35;;;;;;;6.85;3.50;;;;;;;19.83;37.43;99487.28;5076258;28;20311;-74
2021/05/12 06:40:00;;;;;;;8.20;3.72;;;;;;;19.82;36.63;99475.72;5070078;28;20338;-74
2021/05/12 06:42:26;;;;;;;6.50;3.33;;;;;;;20.40;35.94;99481.25;5058216;28;20025;-68
2021/05/12 06:44:52;;;;;;;10.90;3.72;;;;;;;19.96;36.74;99490.59;5059733;28;20330;-75
2021/05/12 06:47:17;;;;;;;6.97;3.30;;;;;;;20.36;36.54;99481.91;5058807;28;20222;-74
2021/05/12 06:49:43;;;;;;;5.10;3.05;;;;;;;20.51;35.21;99478.81;5059773;28;20044;-68
2021/05/12 06:52:08;;;;;;;5.80;3.67;;;;;;;21.08;34.43;99485.25;5058612;28;20021;-75
2021/05/12 06:54:34;;;;;;;8.23;3.70;;;;;;;21.21;34.00;99465.31;5057838;28;20033;-74
2021/05/12 06:56:59;;;;;;;6.75;3.70;;;;;;;20.98;34.39;99472.38;5059120;28;20062;-68
2021/05/12 06:59:24;;;;;;;9.40;3.60;;;;;;;20.81;34.62;99467.94;5057907;28;20349;-75
2021/05/12 07:01:50;;;;;;;5.95;3.47;;;;;;;21.47;33.77;99467.50;5059572;28;20237;-75
2021/05/12 07:04:16;;;;;;;6.88;3.28;;;;;;;22.38;32.28;99471.06;5058530;28;20025;-68
2021/05/12 07:06:41;;;;;;;5.68;3.15;;;;;;;23.20;30.68;99460.41;5058474;28;20029;-75
2021/05/12 07:09:07;;;;;;;5.45;3.10;;;;;;;23.81;29.89;99450.31;5060994;28;20037;-75
2021/05/12 07:11:32;;;;;;;4.90;2.80;;;;;;;24.26;29.37;99456.41;5059845;28;20037;-69
2021/05/12 07:13:57;;;;;;;4.03;3.20;;;;;;;23.26;30.11;99453.19;5056220;28;20035;-74
2021/05/12 07:16:23;;;;;;;8.25;3.17;;;;;;;22.96;30.88;99447.41;5059361;28;20030;-69
2021/05/12 07:18:48;;;;;;;8.27;2.97;;;;;;;23.54;30.29;99444.88;5063048;28;20037;-68
2021/05/12 07:21:14;;;;;;;10.05;3.97;;;;;;;22.81;30.83;99434.47;5061528;28;20111;-68
2021/05/12 07:23:42;;;;;;;6.93;3.33;;;;;;;22.80;31.06;99435.53;5060885;28;20044;-74
2021/05/12 07:26:08;;;;;;;9.60;2.65;;;;;;;22.34;31.42;99434.84;5070611;28;20262;-74
2021/05/12 07:28:34;;;;;;;5.25;2.70;;;;;;;21.85;32.49;99437.25;5072699;28;20050;-74
2021/05/12 07:31:00;;;;;;;7.68;3.20;;;;;;;21.79;33.22;99426.59;5077417;28;20082;-74
2021/05/12 07:33:25;;;;;;;12.70;3.08;;;;;;;22.14;32.67;99431.81;5070301;28;20037;-73
2021/05/12 07:35:50;;;;;;;5.38;2.53;;;;;;;20.93;34.83;99434.59;5064889;28;20082;-74
2021/05/12 07:38:16;;;;;;;8.98;3.08;;;;;;;21.20;34.04;99431.38;5075586;28;20063;-74
2021/05/12 07:40:42;;;;;;;6.97;2.10;;;;;;;21.90;33.83;99420.34;5080074;28;20028;-68
2021/05/12 07:43:11;;;;;;;9.20;2.85;;;;;;;21.68;33.31;99421.00;5068176;28;20074;-74
2021/05/12 07:45:38;;;;;;;4.38;2.70;;;;;;;21.83;33.59;99408.88;5077087;28;20033;-68
2021/05/12 07:48:09;;;;;;;9.02;2.53;;;;;;;21.47;34.45;99415.50;5065364;28;20279;-75
2021/05/12 07:50:36;;;;;;;9.70;2.60;;;;;;;20.69;35.34;99423.00;5064958;28;20040;-68
2021/05/12 07:53:03;;;;;;;3.22;2.10;;;;;;;20.95;35.75;99410.13;5063604;28;20092;-68
2021/05/12 07:55:29;;;;;;;9.20;2.53;;;;;;;21.08;34.95;99399.09;5074967;28;20048;-68
2021/05/12 07:57:55;;;;;;;7.32;2.30;;;;;;;21.31;33.12;99376.69;5067001;28;20226;-74
2021/05/12 08:00:22;;;;;;;9.48;2.10;;;;;;;22.09;32.11;99397.50;5083132;28;20397;-68
2021/05/12 08:02:47;;;;;;;5.35;2.38;;;;;;;21.88;32.17;99398.19;5066255;28;20061;-68
2021/05/12 08:05:13;;;;;;;5.88;2.00;;;;;;;21.88;32.65;99388.25;5084780;28;20050;-75
2021/05/12 08:07:39;;;;;;;7.28;2.17;;;;;;;21.40;33.34;99382.50;5068032;28;20199;-68
2021/05/12 08:10:06;;;;;;;10.85;2.30;;;;;;;20.38;33.15;99381.13;5084255;28;20048;-69
2021/05/12 08:12:31;;;;;;;5.60;2.20;;;;;;;20.52;34.13;99372.84;5067754;28;20037;-75
2021/05/12 08:14:57;;;;;;;8.48;2.72;;;;;;;20.68;34.40;99375.63;5081749;28;20035;-75
2021/05/12 08:17:22;;;;;;;6.60;2.17;;;;;;;21.43;32.73;99377.44;5068244;28;20325;-74
2021/05/12 08:19:48;;;;;;;8.57;2.85;;;;;;;21.84;31.37;99373.59;5080937;28;20517;-75
2021/05/12 08:22:13;;;;;;;7.38;2.17;;;;;;;21.90;31.67;99388.81;5050930;28;20254;-75
2021/05/12 08:24:39;;;;;;;6.53;2.30;;;;;;;22.06;31.73;99389.09;5078554;28;20039;-75
2021/05/12 08:27:05;;;;;;;9.82;2.58;;;;;;;22.83;30.44;99384.56;5069810;28;20036;-75
2021/05/12 08:29:31;;;;;;;9.65;2.83;;;;;;;23.10;29.94;99375.75;5078494;28;20103;-74
2021/05/12 08:31:57;;;;;;;40.90;4.20;;;;;;;23.83;27.79;99377.84;5073017;28;20027;-68
2021/05/12 08:34:23;;;;;;;10.05;3.40;;;;;;;23.97;28.95;99370.16;5077106;28;20382;-68
2021/05/12 08:36:49;;;;;;;8.68;2.60;;;;;;;23.29;28.67;99360.81;5070318;28;20037;-68
2021/05/12 08:39:14;;;;;;;8.50;2.38;;;;;;;22.60;30.07;99364.00;5076179;28;20092;-68
2021/05/12 08:41:41;;;;;;;4.40;2.13;;;;;;;23.30;28.94;99361.63;5071816;28;20039;-75
2021/05/12 08:44:07;;;;;;;8.55;2.30;;;;;;;23.01;30.98;99356.47;5075463;28;20107;-68
2021/05/12 08:46:36;;;;;;;5.75;2.42;;;;;;;22.75;29.94;99347.19;5072716;28;20029;-68
2021/05/12 08:49:03;;;;;;;18.98;3.25;;;;;;;22.74;30.88;99333.94;5072532;28;20025;-74
2021/05/12 08:51:28;;;;;;;49.55;3.88;;;;;;;22.73;29.41;99327.72;5073191;28;20035;-69
2021/05/12 08:53:55;;;;;;;8.10;2.45;;;;;;;23.44;29.35;99325.03;5067921;28;20040;-69
2021/05/12 08:56:21;;;;;;;10.38;2.00;;;;;;;23.70;29.41;99324.22;5061753;28;20025;-69
2021/05/12 08:58:47;;;;;;;8.88;2.10;;;;;;;22.93;30.14;99322.63;5060695;28;20369;-68
2021/05/12 09:01:13;;;;;;;18.63;2.80;;;;;;;22.39;31.53;99323.50;5062630;28;20087;-74
2021/05/12 09:03:39;;;;;;;9.65;1.98;;;;;;;22.20;32.93;99318.41;5060752;28;20032;-74
2021/05/12 09:06:05;;;;;;;5.25;2.05;;;;;;;21.39;32.88;99282.03;5061412;28;20100;-71
2021/05/12 09:08:31;;;;;;;8.32;1.70;;;;;;;21.97;31.30;99313.16;5058911;28;20043;-68
2021/05/12 09:10:57;;;;;;;3.85;1.50;;;;;;;22.25;31.19;99301.47;5059489;28;20040;-74
2021/05/12 09:13:39;;;;;;;6.85;1.70;;;;;;;22.30;31.23;99310.44;5060637;28;20378;-74
2021/05/12 09:16:25;;;;;;;9.88;1.70;;;;;;;22.07;31.77;99291.78;5061087;28;20024;-74
2021/05/12 09:19:08;;;;;;;8.20;1.60;;;;;;;22.21;32.60;99284.97;5058574;28;20428;-69
2021/05/12 09:22:06;;;;;;;9.35;1.58;;;;;;;22.19;33.98;99287.09;5059739;28;20041;-73
2021/05/12 09:24:37;;;;;;;10.77;1.63;;;;;;;21.55;32.52;99266.94;5059053;28;20238;-68
2021/05/12 09:27:11;;;;;;;6.18;1.58;;;;;;;21.34;34.46;99272.00;5058639;28;20029;-74
2021/05/12 09:29:39;;;;;;;11.80;1.88;;;;;;;21.24;34.13;99271.81;5060079;28;20041;-73
2021/05/12 09:32:10;;;;;;;8.93;1.85;;;;;;;21.31;33.42;99268.97;5060161;28;20035;-72
2021/05/12 09:35:01;;;;;;;9.10;1.73;;;;;;;21.08;34.77;99263.69;5058829;28;20339;-74
2021/05/12 09:37:28;;;;;;;4.18;1.60;;;;;;;20.96;34.99;99269.13;5060821;28;20207;-73
2021/05/12 09:39:55;;;;;;;14.80;2.28;;;;;;;21.35;34.25;99259.34;5059575;28;20056;-74
2021/05/12 09:42:22;;;;;;;4.25;1.30;;;;;;;21.31;34.49;99260.88;5059951;28;20037;-69
2021/05/12 09:45:21;;;;;;;6.72;1.92;;;;;;;21.51;34.96;99249.63;5060608;28;20067;-69
2021/05/12 09:47:50;;;;;;;15.07;1.92;;;;;;;21.54;35.74;99249.94;5060200;28;20095;-74
2021/05/12 09:50:19;;;;;;;10.27;2.40;;;;;;;21.02;37.54;99241.22;5062150;28;20032;-74
2021/05/12 09:52:45;;;;;;;5.10;2.13;;;;;;;21.41;36.15;99238.69;5060349;28;20036;-69
2021/05/12 09:55:14;;;;;;;6.70;1.75;;;;;;;21.65;35.24;99245.53;5058530;28;20254;-69
2021/05/12 09:58:05;;;;;;;8.45;2.20;;;;;;;21.20;36.70;99237.50;5054947;28;20033;-74
2021/05/12 10:00:32;;;;;;;5.90;2.10;;;;;;;21.00;38.18;99237.97;5059154;28;20052;-68
2021/05/12 10:02:59;;;;;;;8.13;2.08;;;;;;;21.40;37.28;99231.66;5061566;28;20092;-69
2021/05/12 10:05:26;;;;;;;5.93;2.42;;;;;;;21.52;36.91;99238.59;5060894;28;20327;-74
2021/05/12 10:07:59;;;;;;;8.25;2.60;;;;;;;21.69;36.22;99222.44;5056337;28;20275;-74
2021/05/12 10:10:55;;;;;;;10.32;3.38;;;;;;;21.87;38.31;99214.09;5058204;28;20031;-71
2021/05/12 10:13:20;;;;;;;8.95;3.13;;;;;;;21.35;38.77;99217.06;5043366;28;20028;-69
2021/05/12 10:15:46;;;;;;;11.70;3.55;;;;;;;21.26;37.93;99213.16;5060092;28;20263;-74
2021/05/12 10:18:12;;;;;;;8.82;4.47;;;;;;;21.48;38.60;99228.56;5062101;28;20311;-74
2021/05/12 10:20:41;;;;;;;13.18;5.10;;;;;;;21.64;39.88;99228.56;5062068;28;20070;-74
2021/05/12 10:23:07;;;;;;;10.77;4.63;;;;;;;21.42;39.00;99232.25;5060592;28;20032;-69
2021/05/12 10:25:33;;;;;;;7.10;4.07;;;;;;;21.35;38.66;99218.94;5062216;28;20265;-74
2021/05/12 10:28:00;;;;;;;16.50;5.38;;;;;;;21.76;39.42;99216.88;5061029;28;20037;-76
2021/05/12 10:30:27;;;;;;;7.13;3.33;;;;;;;21.65;40.96;99227.50;5061401;28;20033;-70
2021/05/12 10:32:56;;;;;;;7.88;3.70;;;;;;;21.13;41.72;99218.00;5059322;28;20036;-76
2021/05/12 10:35:38;;;;;;;8.27;3.35;;;;;;;21.43;41.18;99218.53;5057206;28;20376;-71
2021/05/12 10:38:04;;;;;;;9.93;3.95;;;;;;;21.65;41.96;99218.59;5057661;28;20036;-76
2021/05/12 10:40:34;;;;;;;9.60;3.70;;;;;;;21.53;40.71;99215.19;5057592;28;20029;-71
2021/05/12 10:43:18;;;;;;;5.55;3.00;;;;;;;21.81;41.04;99201.59;5060988;28;20036;-76
2021/05/12 10:46:11;;;;;;;8.57;3.58;;;;;;;21.93;40.34;99199.63;5058526;28;20385;-76
2021/05/12 10:48:40;;;;;;;7.63;3.22;;;;;;;21.76;41.63;99193.44;5055600;28;20370;-68
2021/05/12 10:51:10;;;;;;;6.85;3.75;;;;;;;21.59;40.82;99193.47;5056180;28;20335;-68
2021/05/12 10:53:47;;;;;;;7.20;3.15;;;;;;;21.91;39.99;99192.84;5060951;28;20063;-69
2021/05/12 10:56:14;;;;;;;7.95;3.22;;;;;;;22.12;41.51;99196.66;5058643;28;20048;-74
2021/05/12 10:58:56;;;;;;;9.52;3.50;;;;;;;21.74;42.79;99202.81;5073379;28;20219;-69
2021/05/12 11:01:23;;;;;;;5.43;3.00;;;;;;;21.92;40.52;99189.91;5061828;28;20051;-69
2021/05/12 11:03:48;;;;;;;6.40;3.00;;;;;;;22.02;42.27;99188.41;5064134;28;20041;-74
2021/05/12 11:06:14;;;;;;;8.48;3.00;;;;;;;21.85;40.48;99185.78;5064616;28;20128;-69
2021/05/12 11:09:09;;;;;;;12.85;3.90;;;;;;;22.12;40.45;99191.28;5060857;28;20036;-74
2021/05/12 11:11:43;;;;;;;5.57;2.85;;;;;;;22.51;39.17;99176.63;5060597;28;20037;-69
2021/05/12 11:14:26;;;;;;;7.97;2.80;;;;;;;22.56;39.54;99168.59;5060929;28;20056;-74
2021/05/12 11:17:12;;;;;;;6.75;2.70;;;;;;;22.13;40.61;99176.72;5062741;28;20029;-74
2021/05/12 11:19:40;;;;;;;7.15;2.80;;;;;;;22.22;41.47;99183.31;5064132;28;20084;-74
2021/05/12 11:22:24;;;;;;;7.80;2.80;;;;;;;22.40;40.55;99174.06;5061515;28;20096;-68
2021/05/12 11:24:53;;;;;;;5.55;2.25;;;;;;;22.37;43.23;99174.59;5059500;28;20115;-74
2021/05/12 11:27:31;;;;;;;10.32;3.17;;;;;;;22.30;41.35;99156.72;5064233;28;20033;-69
2021/05/12 11:32:25;;;;;;;8.95;2.72;;;;;;;22.76;40.70;99177.97;5061573;28;20233;-71
2021/05/12 11:34:51;;;;;;;8.25;3.05;;;;;;;22.91;39.86;99168.19;5062788;28;20389;-74
2021/05/12 11:37:23;;;;;;;4.22;2.33;;;;;;;22.70;39.10;99155.50;5062392;28;20033;-74